sensor_id;sensor_type;location;lat;lon;timestamp;pressure;altitude;pressure_sealevel;temperature
74539;BMP180;66042;51.090;-115.340;2023-06-26T00:00:29;86959.60;;;22.94
74539;BMP180;66042;51.090;-115.340;2023-06-26T00:02:56;86956.80;;;23.74
74539;BMP180;66042;51.090;-115.340;2023-06-26T00:05:22;86956.20;;;24.50
74539;BMP180;66042;51.090;-115.340;2023-06-26T00:07:49;86958.80;;;25.18
74539;BMP180;66042;51.090;-115.340;2023-06-26T00:10:16;86958.40;;;25.52
74539;BMP180;66042;51.090;-115.340;2023-06-26T00:12:43;86954.80;;;25.70
74539;BMP180;66042;51.090;-115.340;2023-06-26T00:15:10;86953.80;;;25.80
74539;BMP180;66042;51.090;-115.340;2023-06-26T00:17:38;86954.40;;;26.10
74539;BMP180;66042;51.090;-115.340;2023-06-26T00:20:05;86953.80;;;26.18
74539;BMP180;66042;51.090;-115.340;2023-06-26T00:22:33;86956.60;;;26.10
74539;BMP180;66042;51.090;-115.340;2023-06-26T00:24:59;86954.40;;;25.80
74539;BMP180;66042;51.090;-115.340;2023-06-26T00:27:27;86958.40;;;25.60
74539;BMP180;66042;51.090;-115.340;2023-06-26T00:29:53;86957.20;;;25.20
74539;BMP180;66042;51.090;-115.340;2023-06-26T00:32:20;86956.80;;;24.80
74539;BMP180;66042;51.090;-115.340;2023-06-26T00:34:47;86959.00;;;24.50
74539;BMP180;66042;51.090;-115.340;2023-06-26T00:37:14;86957.20;;;24.30
74539;BMP180;66042;51.090;-115.340;2023-06-26T00:39:41;86953.60;;;24.30
74539;BMP180;66042;51.090;-115.340;2023-06-26T00:42:08;86954.20;;;24.30
74539;BMP180;66042;51.090;-115.340;2023-06-26T00:44:35;86951.00;;;24.40
74539;BMP180;66042;51.090;-115.340;2023-06-26T00:47:02;86952.60;;;24.30
74539;BMP180;66042;51.090;-115.340;2023-06-26T00:49:28;86947.40;;;24.10
74539;BMP180;66042;51.090;-115.340;2023-06-26T00:51:56;86946.80;;;24.00
74539;BMP180;66042;51.090;-115.340;2023-06-26T00:54:24;86946.00;;;23.90
74539;BMP180;66042;51.090;-115.340;2023-06-26T00:56:51;86942.80;;;23.70
74539;BMP180;66042;51.090;-115.340;2023-06-26T00:59:18;86944.00;;;23.42
74539;BMP180;66042;51.090;-115.340;2023-06-26T01:01:45;86940.20;;;23.30
74539;BMP180;66042;51.090;-115.340;2023-06-26T01:04:12;86942.20;;;23.10
74539;BMP180;66042;51.090;-115.340;2023-06-26T01:06:47;86937.60;;;22.98
74539;BMP180;66042;51.090;-115.340;2023-06-26T01:09:19;86935.60;;;22.76
74539;BMP180;66042;51.090;-115.340;2023-06-26T01:11:47;86933.40;;;22.60
74539;BMP180;66042;51.090;-115.340;2023-06-26T01:14:14;86935.00;;;22.60
74539;BMP180;66042;51.090;-115.340;2023-06-26T01:16:43;86936.40;;;22.60
74539;BMP180;66042;51.090;-115.340;2023-06-26T01:19:40;86937.20;;;22.50
74539;BMP180;66042;51.090;-115.340;2023-06-26T01:22:38;86932.40;;;22.40
74539;BMP180;66042;51.090;-115.340;2023-06-26T01:27:56;86931.60;;;22.36
74539;BMP180;66042;51.090;-115.340;2023-06-26T01:30:25;86933.20;;;22.30
74539;BMP180;66042;51.090;-115.340;2023-06-26T01:32:53;86935.60;;;22.20
74539;BMP180;66042;51.090;-115.340;2023-06-26T01:35:20;86935.60;;;22.10
74539;BMP180;66042;51.090;-115.340;2023-06-26T01:37:47;86937.00;;;22.02
74539;BMP180;66042;51.090;-115.340;2023-06-26T01:40:14;86937.60;;;21.92
74539;BMP180;66042;51.090;-115.340;2023-06-26T01:42:41;86941.20;;;21.80
74539;BMP180;66042;51.090;-115.340;2023-06-26T01:45:26;86938.80;;;21.60
74539;BMP180;66042;51.090;-115.340;2023-06-26T01:47:55;86945.20;;;21.40
74539;BMP180;66042;51.090;-115.340;2023-06-26T01:50:28;86942.00;;;21.28
74539;BMP180;66042;51.090;-115.340;2023-06-26T01:53:07;86946.60;;;21.10
74539;BMP180;66042;51.090;-115.340;2023-06-26T01:55:48;86940.80;;;20.90
74539;BMP180;66042;51.090;-115.340;2023-06-26T01:58:21;86945.80;;;20.70
74539;BMP180;66042;51.090;-115.340;2023-06-26T02:00:49;86948.20;;;20.60
74539;BMP180;66042;51.090;-115.340;2023-06-26T02:03:16;86950.80;;;20.50
74539;BMP180;66042;51.090;-115.340;2023-06-26T02:05:42;86949.00;;;20.40
74539;BMP180;66042;51.090;-115.340;2023-06-26T02:08:14;86949.20;;;20.26
74539;BMP180;66042;51.090;-115.340;2023-06-26T02:10:41;86951.00;;;20.16
74539;BMP180;66042;51.090;-115.340;2023-06-26T02:13:08;86950.60;;;20.00
74539;BMP180;66042;51.090;-115.340;2023-06-26T02:15:35;86953.80;;;19.90
74539;BMP180;66042;51.090;-115.340;2023-06-26T02:18:02;86960.60;;;19.82
74539;BMP180;66042;51.090;-115.340;2023-06-26T02:20:28;86959.20;;;19.80
74539;BMP180;66042;51.090;-115.340;2023-06-26T02:22:55;86958.40;;;19.70
74539;BMP180;66042;51.090;-115.340;2023-06-26T02:25:22;86959.20;;;19.60
74539;BMP180;66042;51.090;-115.340;2023-06-26T02:27:48;86956.60;;;19.50
74539;BMP180;66042;51.090;-115.340;2023-06-26T02:30:15;86955.20;;;19.36
74539;BMP180;66042;51.090;-115.340;2023-06-26T02:32:43;86951.40;;;19.24
74539;BMP180;66042;51.090;-115.340;2023-06-26T02:35:09;86950.20;;;19.20
74539;BMP180;66042;51.090;-115.340;2023-06-26T02:37:36;86952.60;;;19.10
74539;BMP180;66042;51.090;-115.340;2023-06-26T02:40:04;86951.40;;;19.00
74539;BMP180;66042;51.090;-115.340;2023-06-26T02:42:32;86949.40;;;18.80
74539;BMP180;66042;51.090;-115.340;2023-06-26T02:44:58;86950.60;;;18.80
74539;BMP180;66042;51.090;-115.340;2023-06-26T02:47:25;86950.40;;;18.70
74539;BMP180;66042;51.090;-115.340;2023-06-26T02:49:53;86954.80;;;18.60
74539;BMP180;66042;51.090;-115.340;2023-06-26T02:52:20;86957.20;;;18.50
74539;BMP180;66042;51.090;-115.340;2023-06-26T02:54:46;86955.80;;;18.40
74539;BMP180;66042;51.090;-115.340;2023-06-26T02:57:13;86949.80;;;18.30
74539;BMP180;66042;51.090;-115.340;2023-06-26T02:59:41;86950.40;;;18.22
74539;BMP180;66042;51.090;-115.340;2023-06-26T03:02:07;86948.80;;;18.20
74539;BMP180;66042;51.090;-115.340;2023-06-26T03:04:35;86951.60;;;18.10
74539;BMP180;66042;51.090;-115.340;2023-06-26T03:07:04;86949.40;;;18.00
74539;BMP180;66042;51.090;-115.340;2023-06-26T03:09:31;86953.00;;;17.90
74539;BMP180;66042;51.090;-115.340;2023-06-26T03:11:58;86956.00;;;17.82
74539;BMP180;66042;51.090;-115.340;2023-06-26T03:14:26;86958.40;;;17.72
74539;BMP180;66042;51.090;-115.340;2023-06-26T03:16:54;86952.00;;;17.64
74539;BMP180;66042;51.090;-115.340;2023-06-26T03:19:24;86955.20;;;17.52
74539;BMP180;66042;51.090;-115.340;2023-06-26T03:21:51;86956.20;;;17.40
74539;BMP180;66042;51.090;-115.340;2023-06-26T03:24:18;86956.60;;;17.40
74539;BMP180;66042;51.090;-115.340;2023-06-26T03:26:45;86961.80;;;17.30
74539;BMP180;66042;51.090;-115.340;2023-06-26T03:29:12;86964.60;;;17.20
74539;BMP180;66042;51.090;-115.340;2023-06-26T03:31:39;86963.20;;;17.12
74539;BMP180;66042;51.090;-115.340;2023-06-26T03:34:06;86964.80;;;17.10
74539;BMP180;66042;51.090;-115.340;2023-06-26T03:36:33;86964.80;;;17.00
74539;BMP180;66042;51.090;-115.340;2023-06-26T03:39:01;86969.80;;;16.92
74539;BMP180;66042;51.090;-115.340;2023-06-26T03:41:30;86966.60;;;16.80
74539;BMP180;66042;51.090;-115.340;2023-06-26T03:43:57;86966.60;;;16.76
74539;BMP180;66042;51.090;-115.340;2023-06-26T03:46:27;86971.20;;;16.70
74539;BMP180;66042;51.090;-115.340;2023-06-26T03:48:54;86975.40;;;16.70
74539;BMP180;66042;51.090;-115.340;2023-06-26T03:51:21;86979.80;;;16.60
74539;BMP180;66042;51.090;-115.340;2023-06-26T03:53:48;86983.00;;;16.50
74539;BMP180;66042;51.090;-115.340;2023-06-26T03:56:15;86986.40;;;16.50
74539;BMP180;66042;51.090;-115.340;2023-06-26T03:58:42;86988.60;;;16.40
74539;BMP180;66042;51.090;-115.340;2023-06-26T04:01:09;86990.60;;;16.26
74539;BMP180;66042;51.090;-115.340;2023-06-26T04:03:36;87000.40;;;16.20
74539;BMP180;66042;51.090;-115.340;2023-06-26T04:06:04;87008.40;;;16.10
74539;BMP180;66042;51.090;-115.340;2023-06-26T04:08:31;87013.60;;;16.10
74539;BMP180;66042;51.090;-115.340;2023-06-26T04:11:01;87016.00;;;16.00
74539;BMP180;66042;51.090;-115.340;2023-06-26T04:13:28;87023.40;;;15.98
74539;BMP180;66042;51.090;-115.340;2023-06-26T04:15:55;87022.60;;;15.90
74539;BMP180;66042;51.090;-115.340;2023-06-26T04:18:22;87022.00;;;15.90
74539;BMP180;66042;51.090;-115.340;2023-06-26T04:21:24;87027.40;;;15.80
74539;BMP180;66042;51.090;-115.340;2023-06-26T04:23:52;87029.00;;;15.80
74539;BMP180;66042;51.090;-115.340;2023-06-26T04:26:19;87027.00;;;15.78
74539;BMP180;66042;51.090;-115.340;2023-06-26T04:28:46;87032.80;;;15.70
74539;BMP180;66042;51.090;-115.340;2023-06-26T04:31:13;87032.00;;;15.60
74539;BMP180;66042;51.090;-115.340;2023-06-26T04:33:40;87033.40;;;15.60
74539;BMP180;66042;51.090;-115.340;2023-06-26T04:36:07;87028.60;;;15.60
74539;BMP180;66042;51.090;-115.340;2023-06-26T04:38:34;87034.40;;;15.50
74539;BMP180;66042;51.090;-115.340;2023-06-26T04:41:02;87036.00;;;15.50
74539;BMP180;66042;51.090;-115.340;2023-06-26T04:43:29;87045.20;;;15.50
74539;BMP180;66042;51.090;-115.340;2023-06-26T04:45:56;87046.60;;;15.40
74539;BMP180;66042;51.090;-115.340;2023-06-26T04:48:23;87046.80;;;15.40
74539;BMP180;66042;51.090;-115.340;2023-06-26T04:50:50;87048.00;;;15.30
74539;BMP180;66042;51.090;-115.340;2023-06-26T04:53:21;87050.60;;;15.30
74539;BMP180;66042;51.090;-115.340;2023-06-26T04:55:50;87052.20;;;15.20
74539;BMP180;66042;51.090;-115.340;2023-06-26T04:58:18;87055.40;;;15.20
74539;BMP180;66042;51.090;-115.340;2023-06-26T05:00:46;87056.60;;;15.10
74539;BMP180;66042;51.090;-115.340;2023-06-26T05:03:14;87059.80;;;15.10
74539;BMP180;66042;51.090;-115.340;2023-06-26T05:05:43;87062.80;;;15.10
74539;BMP180;66042;51.090;-115.340;2023-06-26T05:08:24;87070.60;;;15.02
74539;BMP180;66042;51.090;-115.340;2023-06-26T05:10:55;87072.00;;;15.00
74539;BMP180;66042;51.090;-115.340;2023-06-26T05:13:25;87076.00;;;15.00
74539;BMP180;66042;51.090;-115.340;2023-06-26T05:15:53;87077.60;;;15.00
74539;BMP180;66042;51.090;-115.340;2023-06-26T05:18:20;87074.60;;;15.00
74539;BMP180;66042;51.090;-115.340;2023-06-26T05:20:47;87072.80;;;15.00
74539;BMP180;66042;51.090;-115.340;2023-06-26T05:23:16;87063.40;;;14.90
74539;BMP180;66042;51.090;-115.340;2023-06-26T05:25:43;87064.40;;;14.86
74539;BMP180;66042;51.090;-115.340;2023-06-26T05:28:12;87065.60;;;14.80
74539;BMP180;66042;51.090;-115.340;2023-06-26T05:30:41;87069.20;;;14.80
74539;BMP180;66042;51.090;-115.340;2023-06-26T05:33:11;87067.20;;;14.74
74539;BMP180;66042;51.090;-115.340;2023-06-26T05:35:39;87068.40;;;14.70
74539;BMP180;66042;51.090;-115.340;2023-06-26T05:38:07;87067.00;;;14.70
74539;BMP180;66042;51.090;-115.340;2023-06-26T05:40:34;87062.80;;;14.70
74539;BMP180;66042;51.090;-115.340;2023-06-26T05:43:02;87057.00;;;14.60
74539;BMP180;66042;51.090;-115.340;2023-06-26T05:45:29;87050.80;;;14.60
74539;BMP180;66042;51.090;-115.340;2023-06-26T05:47:57;87045.60;;;14.60
74539;BMP180;66042;51.090;-115.340;2023-06-26T05:50:24;87045.40;;;14.50
74539;BMP180;66042;51.090;-115.340;2023-06-26T05:52:52;87038.40;;;14.50
74539;BMP180;66042;51.090;-115.340;2023-06-26T05:55:21;87033.40;;;14.42
74539;BMP180;66042;51.090;-115.340;2023-06-26T05:57:50;87035.40;;;14.50
74539;BMP180;66042;51.090;-115.340;2023-06-26T06:00:18;87036.00;;;14.40
74539;BMP180;66042;51.090;-115.340;2023-06-26T06:02:46;87033.20;;;14.40
74539;BMP180;66042;51.090;-115.340;2023-06-26T06:05:13;87037.80;;;14.34
74539;BMP180;66042;51.090;-115.340;2023-06-26T06:07:40;87044.00;;;14.30
74539;BMP180;66042;51.090;-115.340;2023-06-26T06:10:07;87047.40;;;14.30
74539;BMP180;66042;51.090;-115.340;2023-06-26T06:12:34;87048.80;;;14.20
74539;BMP180;66042;51.090;-115.340;2023-06-26T06:15:01;87053.60;;;14.20
74539;BMP180;66042;51.090;-115.340;2023-06-26T06:17:28;87055.20;;;14.10
74539;BMP180;66042;51.090;-115.340;2023-06-26T06:19:55;87058.60;;;14.00
74539;BMP180;66042;51.090;-115.340;2023-06-26T06:22:22;87055.60;;;14.00
74539;BMP180;66042;51.090;-115.340;2023-06-26T06:24:52;87053.20;;;13.92
74539;BMP180;66042;51.090;-115.340;2023-06-26T06:27:19;87051.40;;;13.90
74539;BMP180;66042;51.090;-115.340;2023-06-26T06:29:46;87049.00;;;13.90
74539;BMP180;66042;51.090;-115.340;2023-06-26T06:32:14;87048.60;;;13.82
74539;BMP180;66042;51.090;-115.340;2023-06-26T06:34:40;87048.00;;;13.80
74539;BMP180;66042;51.090;-115.340;2023-06-26T06:37:08;87043.60;;;13.70
74539;BMP180;66042;51.090;-115.340;2023-06-26T06:39:34;87041.00;;;13.60
74539;BMP180;66042;51.090;-115.340;2023-06-26T06:42:01;87036.80;;;13.50
74539;BMP180;66042;51.090;-115.340;2023-06-26T06:44:29;87029.40;;;13.50
74539;BMP180;66042;51.090;-115.340;2023-06-26T06:46:57;87029.00;;;13.50
74539;BMP180;66042;51.090;-115.340;2023-06-26T06:49:24;87025.00;;;13.40
74539;BMP180;66042;51.090;-115.340;2023-06-26T06:51:50;87019.20;;;13.30
74539;BMP180;66042;51.090;-115.340;2023-06-26T06:54:17;87016.00;;;13.10
74539;BMP180;66042;51.090;-115.340;2023-06-26T06:56:45;87008.80;;;13.10
74539;BMP180;66042;51.090;-115.340;2023-06-26T06:59:12;87006.60;;;13.10
74539;BMP180;66042;51.090;-115.340;2023-06-26T07:01:40;87004.40;;;12.90
74539;BMP180;66042;51.090;-115.340;2023-06-26T07:04:07;87007.60;;;12.80
74539;BMP180;66042;51.090;-115.340;2023-06-26T07:06:33;87001.80;;;12.80
74539;BMP180;66042;51.090;-115.340;2023-06-26T07:09:01;87003.80;;;12.80
74539;BMP180;66042;51.090;-115.340;2023-06-26T07:11:29;87005.60;;;12.70
74539;BMP180;66042;51.090;-115.340;2023-06-26T07:13:56;87007.60;;;12.60
74539;BMP180;66042;51.090;-115.340;2023-06-26T07:16:23;87010.40;;;12.58
74539;BMP180;66042;51.090;-115.340;2023-06-26T07:18:50;87007.60;;;12.60
74539;BMP180;66042;51.090;-115.340;2023-06-26T07:21:18;87018.00;;;12.60
74539;BMP180;66042;51.090;-115.340;2023-06-26T07:23:45;87020.80;;;12.46
74539;BMP180;66042;51.090;-115.340;2023-06-26T07:26:15;87021.20;;;12.30
74539;BMP180;66042;51.090;-115.340;2023-06-26T07:28:42;87015.20;;;12.30
74539;BMP180;66042;51.090;-115.340;2023-06-26T07:31:09;87017.20;;;12.30
74539;BMP180;66042;51.090;-115.340;2023-06-26T07:33:36;87016.20;;;12.30
74539;BMP180;66042;51.090;-115.340;2023-06-26T07:36:03;87018.40;;;12.30
74539;BMP180;66042;51.090;-115.340;2023-06-26T07:38:30;87018.00;;;12.30
74539;BMP180;66042;51.090;-115.340;2023-06-26T07:40:57;87019.00;;;12.30
74539;BMP180;66042;51.090;-115.340;2023-06-26T07:43:24;87019.80;;;12.30
74539;BMP180;66042;51.090;-115.340;2023-06-26T07:45:51;87022.20;;;12.30
74539;BMP180;66042;51.090;-115.340;2023-06-26T07:48:20;87025.20;;;12.30
74539;BMP180;66042;51.090;-115.340;2023-06-26T07:50:47;87022.00;;;12.10
74539;BMP180;66042;51.090;-115.340;2023-06-26T07:53:14;87022.40;;;12.00
74539;BMP180;66042;51.090;-115.340;2023-06-26T07:55:42;87016.20;;;11.94
74539;BMP180;66042;51.090;-115.340;2023-06-26T07:58:09;87018.40;;;11.80
74539;BMP180;66042;51.090;-115.340;2023-06-26T08:00:36;87018.60;;;11.70
74539;BMP180;66042;51.090;-115.340;2023-06-26T08:03:03;87015.20;;;11.60
74539;BMP180;66042;51.090;-115.340;2023-06-26T08:05:30;87016.60;;;11.60
74539;BMP180;66042;51.090;-115.340;2023-06-26T08:07:57;87014.40;;;11.60
74539;BMP180;66042;51.090;-115.340;2023-06-26T08:10:25;87010.60;;;11.60
74539;BMP180;66042;51.090;-115.340;2023-06-26T08:12:51;87008.40;;;11.70
74539;BMP180;66042;51.090;-115.340;2023-06-26T08:15:19;87012.40;;;11.70
74539;BMP180;66042;51.090;-115.340;2023-06-26T08:17:45;87013.80;;;11.70
74539;BMP180;66042;51.090;-115.340;2023-06-26T08:20:12;87018.40;;;11.62
74539;BMP180;66042;51.090;-115.340;2023-06-26T08:22:39;87019.20;;;11.60
74539;BMP180;66042;51.090;-115.340;2023-06-26T08:25:07;87017.40;;;11.50
74539;BMP180;66042;51.090;-115.340;2023-06-26T08:27:34;87017.80;;;11.50
74539;BMP180;66042;51.090;-115.340;2023-06-26T08:30:01;87018.00;;;11.50
74539;BMP180;66042;51.090;-115.340;2023-06-26T08:32:28;87019.00;;;11.48
74539;BMP180;66042;51.090;-115.340;2023-06-26T08:34:55;87018.60;;;11.40
74539;BMP180;66042;51.090;-115.340;2023-06-26T08:37:23;87017.60;;;11.40
74539;BMP180;66042;51.090;-115.340;2023-06-26T08:39:50;87013.20;;;11.36
74539;BMP180;66042;51.090;-115.340;2023-06-26T08:42:17;87007.80;;;11.30
74539;BMP180;66042;51.090;-115.340;2023-06-26T08:44:44;87003.20;;;11.30
74539;BMP180;66042;51.090;-115.340;2023-06-26T08:47:12;87006.00;;;11.30
74539;BMP180;66042;51.090;-115.340;2023-06-26T08:52:46;87009.00;;;11.24
74539;BMP180;66042;51.090;-115.340;2023-06-26T08:55:21;87011.20;;;11.10
74539;BMP180;66042;51.090;-115.340;2023-06-26T08:57:51;87010.60;;;11.10
74539;BMP180;66042;51.090;-115.340;2023-06-26T09:00:20;87007.20;;;11.08
74539;BMP180;66042;51.090;-115.340;2023-06-26T09:02:47;87010.20;;;10.90
74539;BMP180;66042;51.090;-115.340;2023-06-26T09:05:14;87012.00;;;10.80
74539;BMP180;66042;51.090;-115.340;2023-06-26T09:07:41;87006.60;;;10.80
74539;BMP180;66042;51.090;-115.340;2023-06-26T09:10:09;87005.60;;;10.80
74539;BMP180;66042;51.090;-115.340;2023-06-26T09:12:37;87005.00;;;10.78
74539;BMP180;66042;51.090;-115.340;2023-06-26T09:15:06;87005.40;;;10.70
74539;BMP180;66042;51.090;-115.340;2023-06-26T09:17:40;87005.40;;;10.74
74539;BMP180;66042;51.090;-115.340;2023-06-26T09:20:08;86998.80;;;10.70
74539;BMP180;66042;51.090;-115.340;2023-06-26T09:22:39;87002.40;;;10.70
74539;BMP180;66042;51.090;-115.340;2023-06-26T09:25:07;87001.00;;;10.70
74539;BMP180;66042;51.090;-115.340;2023-06-26T09:27:36;87005.40;;;10.70
74539;BMP180;66042;51.090;-115.340;2023-06-26T09:30:05;87005.60;;;10.70
74539;BMP180;66042;51.090;-115.340;2023-06-26T09:32:36;87008.60;;;10.68
74539;BMP180;66042;51.090;-115.340;2023-06-26T09:35:04;87004.60;;;10.60
74539;BMP180;66042;51.090;-115.340;2023-06-26T09:37:32;87006.20;;;10.60
74539;BMP180;66042;51.090;-115.340;2023-06-26T09:40:01;87004.40;;;10.50
74539;BMP180;66042;51.090;-115.340;2023-06-26T09:42:29;87000.20;;;10.50
74539;BMP180;66042;51.090;-115.340;2023-06-26T09:44:55;87006.80;;;10.50
74539;BMP180;66042;51.090;-115.340;2023-06-26T09:47:23;87010.00;;;10.40
74539;BMP180;66042;51.090;-115.340;2023-06-26T09:49:50;87008.60;;;10.30
74539;BMP180;66042;51.090;-115.340;2023-06-26T09:52:19;87004.20;;;10.30
74539;BMP180;66042;51.090;-115.340;2023-06-26T09:54:46;87005.80;;;10.30
74539;BMP180;66042;51.090;-115.340;2023-06-26T09:57:16;87005.20;;;10.30
74539;BMP180;66042;51.090;-115.340;2023-06-26T09:59:44;87009.80;;;10.30
74539;BMP180;66042;51.090;-115.340;2023-06-26T10:02:11;87011.20;;;10.20
74539;BMP180;66042;51.090;-115.340;2023-06-26T10:04:39;87002.20;;;10.10
74539;BMP180;66042;51.090;-115.340;2023-06-26T10:07:11;86996.60;;;10.18
74539;BMP180;66042;51.090;-115.340;2023-06-26T10:09:42;86990.60;;;10.20
74539;BMP180;66042;51.090;-115.340;2023-06-26T10:12:29;86990.00;;;10.10
74539;BMP180;66042;51.090;-115.340;2023-06-26T10:14:58;86989.20;;;10.00
74539;BMP180;66042;51.090;-115.340;2023-06-26T10:17:34;86988.00;;;10.00
74539;BMP180;66042;51.090;-115.340;2023-06-26T10:20:03;86990.40;;;10.00
74539;BMP180;66042;51.090;-115.340;2023-06-26T10:22:46;86988.80;;;10.08
74539;BMP180;66042;51.090;-115.340;2023-06-26T10:25:19;86987.60;;;10.00
74539;BMP180;66042;51.090;-115.340;2023-06-26T10:27:54;86984.00;;;10.00
74539;BMP180;66042;51.090;-115.340;2023-06-26T10:30:28;86984.00;;;10.00
74539;BMP180;66042;51.090;-115.340;2023-06-26T10:32:57;86982.80;;;10.00
74539;BMP180;66042;51.090;-115.340;2023-06-26T10:35:25;86981.40;;;9.90
74539;BMP180;66042;51.090;-115.340;2023-06-26T10:38:00;86984.60;;;9.90
74539;BMP180;66042;51.090;-115.340;2023-06-26T10:40:47;86975.80;;;9.90
74539;BMP180;66042;51.090;-115.340;2023-06-26T10:43:16;86976.80;;;9.90
74539;BMP180;66042;51.090;-115.340;2023-06-26T10:45:47;86977.00;;;9.82
74539;BMP180;66042;51.090;-115.340;2023-06-26T10:48:19;86976.60;;;9.80
74539;BMP180;66042;51.090;-115.340;2023-06-26T10:50:49;86974.80;;;9.70
74539;BMP180;66042;51.090;-115.340;2023-06-26T10:55:59;86969.00;;;9.70
74539;BMP180;66042;51.090;-115.340;2023-06-26T11:03:41;86970.40;;;9.70
74539;BMP180;66042;51.090;-115.340;2023-06-26T11:06:12;86970.80;;;9.70
74539;BMP180;66042;51.090;-115.340;2023-06-26T11:08:49;86966.20;;;9.62
74539;BMP180;66042;51.090;-115.340;2023-06-26T11:11:17;86966.20;;;9.60
74539;BMP180;66042;51.090;-115.340;2023-06-26T11:13:46;86964.20;;;9.60
74539;BMP180;66042;51.090;-115.340;2023-06-26T11:16:15;86963.80;;;9.60
74539;BMP180;66042;51.090;-115.340;2023-06-26T11:18:42;86962.60;;;9.60
74539;BMP180;66042;51.090;-115.340;2023-06-26T11:21:11;86963.40;;;9.60
74539;BMP180;66042;51.090;-115.340;2023-06-26T11:23:43;86961.80;;;9.56
74539;BMP180;66042;51.090;-115.340;2023-06-26T11:26:22;86962.60;;;9.52
74539;BMP180;66042;51.090;-115.340;2023-06-26T11:28:56;86963.80;;;9.58
74539;BMP180;66042;51.090;-115.340;2023-06-26T11:31:31;86965.20;;;9.60
74539;BMP180;66042;51.090;-115.340;2023-06-26T11:34:02;86963.80;;;9.52
74539;BMP180;66042;51.090;-115.340;2023-06-26T11:36:30;86969.80;;;9.50
74539;BMP180;66042;51.090;-115.340;2023-06-26T11:39:03;86969.00;;;9.50
74539;BMP180;66042;51.090;-115.340;2023-06-26T11:41:34;86969.00;;;9.40
74539;BMP180;66042;51.090;-115.340;2023-06-26T11:44:06;86971.00;;;9.40
74539;BMP180;66042;51.090;-115.340;2023-06-26T11:46:37;86967.80;;;9.40
74539;BMP180;66042;51.090;-115.340;2023-06-26T11:49:08;86968.60;;;9.40
74539;BMP180;66042;51.090;-115.340;2023-06-26T11:51:36;86961.60;;;9.40
74539;BMP180;66042;51.090;-115.340;2023-06-26T11:54:04;86962.20;;;9.40
74539;BMP180;66042;51.090;-115.340;2023-06-26T11:56:32;86961.00;;;9.34
74539;BMP180;66042;51.090;-115.340;2023-06-26T11:59:10;86960.60;;;9.30
74539;BMP180;66042;51.090;-115.340;2023-06-26T12:01:41;86959.60;;;9.30
74539;BMP180;66042;51.090;-115.340;2023-06-26T12:04:11;86959.60;;;9.30
74539;BMP180;66042;51.090;-115.340;2023-06-26T12:06:46;86956.20;;;9.30
74539;BMP180;66042;51.090;-115.340;2023-06-26T12:09:15;86957.00;;;9.30
74539;BMP180;66042;51.090;-115.340;2023-06-26T12:11:47;86963.20;;;9.20
74539;BMP180;66042;51.090;-115.340;2023-06-26T12:14:19;86961.20;;;9.20
74539;BMP180;66042;51.090;-115.340;2023-06-26T12:16:47;86961.80;;;9.20
74539;BMP180;66042;51.090;-115.340;2023-06-26T12:19:14;86959.40;;;9.20
74539;BMP180;66042;51.090;-115.340;2023-06-26T12:24:10;86955.20;;;9.20
74539;BMP180;66042;51.090;-115.340;2023-06-26T12:26:46;86950.80;;;9.24
74539;BMP180;66042;51.090;-115.340;2023-06-26T12:29:18;86951.80;;;9.20
74539;BMP180;66042;51.090;-115.340;2023-06-26T12:31:51;86955.20;;;9.20
74539;BMP180;66042;51.090;-115.340;2023-06-26T12:34:35;86951.20;;;9.20
74539;BMP180;66042;51.090;-115.340;2023-06-26T12:37:11;86955.60;;;9.20
74539;BMP180;66042;51.090;-115.340;2023-06-26T12:39:55;86954.40;;;9.20
74539;BMP180;66042;51.090;-115.340;2023-06-26T12:42:28;86952.80;;;9.20
74539;BMP180;66042;51.090;-115.340;2023-06-26T12:44:55;86955.20;;;9.20
74539;BMP180;66042;51.090;-115.340;2023-06-26T12:47:27;86953.80;;;9.20
74539;BMP180;66042;51.090;-115.340;2023-06-26T12:49:56;86955.40;;;9.20
74539;BMP180;66042;51.090;-115.340;2023-06-26T12:52:24;86956.20;;;9.14
74539;BMP180;66042;51.090;-115.340;2023-06-26T12:54:55;86953.20;;;9.12
74539;BMP180;66042;51.090;-115.340;2023-06-26T12:57:24;86953.40;;;9.10
74539;BMP180;66042;51.090;-115.340;2023-06-26T12:59:51;86954.00;;;9.10
74539;BMP180;66042;51.090;-115.340;2023-06-26T13:02:19;86949.20;;;9.10
74539;BMP180;66042;51.090;-115.340;2023-06-26T13:04:46;86947.40;;;9.02
74539;BMP180;66042;51.090;-115.340;2023-06-26T13:07:13;86948.00;;;9.10
74539;BMP180;66042;51.090;-115.340;2023-06-26T13:09:40;86943.80;;;9.10
74539;BMP180;66042;51.090;-115.340;2023-06-26T13:12:08;86943.20;;;9.20
74539;BMP180;66042;51.090;-115.340;2023-06-26T13:14:35;86943.60;;;9.20
74539;BMP180;66042;51.090;-115.340;2023-06-26T13:17:02;86943.20;;;9.20
74539;BMP180;66042;51.090;-115.340;2023-06-26T13:19:29;86941.60;;;9.30
74539;BMP180;66042;51.090;-115.340;2023-06-26T13:21:56;86941.40;;;9.30
74539;BMP180;66042;51.090;-115.340;2023-06-26T13:24:23;86938.80;;;9.30
74539;BMP180;66042;51.090;-115.340;2023-06-26T13:26:50;86942.00;;;9.40
74539;BMP180;66042;51.090;-115.340;2023-06-26T13:29:17;86940.00;;;9.40
74539;BMP180;66042;51.090;-115.340;2023-06-26T13:31:45;86941.60;;;9.40
74539;BMP180;66042;51.090;-115.340;2023-06-26T13:34:22;86941.20;;;9.40
74539;BMP180;66042;51.090;-115.340;2023-06-26T13:36:54;86938.80;;;9.40
74539;BMP180;66042;51.090;-115.340;2023-06-26T13:39:20;86937.40;;;9.40
74539;BMP180;66042;51.090;-115.340;2023-06-26T13:41:48;86932.60;;;9.40
74539;BMP180;66042;51.090;-115.340;2023-06-26T13:44:15;86936.20;;;9.40
74539;BMP180;66042;51.090;-115.340;2023-06-26T13:46:42;86935.00;;;9.40
74539;BMP180;66042;51.090;-115.340;2023-06-26T13:49:08;86938.40;;;9.40
74539;BMP180;66042;51.090;-115.340;2023-06-26T13:51:36;86936.40;;;9.50
74539;BMP180;66042;51.090;-115.340;2023-06-26T13:54:03;86933.20;;;9.48
74539;BMP180;66042;51.090;-115.340;2023-06-26T13:56:29;86933.20;;;9.50
74539;BMP180;66042;51.090;-115.340;2023-06-26T13:58:57;86937.20;;;9.50
74539;BMP180;66042;51.090;-115.340;2023-06-26T14:01:24;86935.60;;;9.50